sensor_id;sensor_type;location;lat;lon;timestamp;temperature;humidity
3727;DHT22;1879;45.876;12.300;2023-06-22T00:00:53;26.20;99.90
3727;DHT22;1879;45.876;12.300;2023-06-22T00:03:22;26.20;99.90
3727;DHT22;1879;45.876;12.300;2023-06-22T00:05:50;26.20;99.90
3727;DHT22;1879;45.876;12.300;2023-06-22T00:08:18;26.20;99.90
3727;DHT22;1879;45.876;12.300;2023-06-22T00:10:46;26.20;99.90
3727;DHT22;1879;45.876;12.300;2023-06-22T00:13:14;26.10;99.90
3727;DHT22;1879;45.876;12.300;2023-06-22T00:15:44;26.20;99.90
3727;DHT22;1879;45.876;12.300;2023-06-22T00:18:11;26.10;99.90
3727;DHT22;1879;45.876;12.300;2023-06-22T00:20:39;26.10;99.90
3727;DHT22;1879;45.876;12.300;2023-06-22T00:23:07;26.10;99.90
3727;DHT22;1879;45.876;12.300;2023-06-22T00:25:34;26.10;99.90
3727;DHT22;1879;45.876;12.300;2023-06-22T00:28:02;26.10;99.90
3727;DHT22;1879;45.876;12.300;2023-06-22T00:30:30;26.10;99.90
3727;DHT22;1879;45.876;12.300;2023-06-22T00:32:59;26.10;99.90
3727;DHT22;1879;45.876;12.300;2023-06-22T00:35:26;26.10;99.90
3727;DHT22;1879;45.876;12.300;2023-06-22T00:37:55;26.10;99.90
3727;DHT22;1879;45.876;12.300;2023-06-22T00:40:26;26.10;99.90
3727;DHT22;1879;45.876;12.300;2023-06-22T00:42:54;26.10;99.90
3727;DHT22;1879;45.876;12.300;2023-06-22T00:45:21;26.10;99.90
3727;DHT22;1879;45.876;12.300;2023-06-22T00:47:50;26.10;99.90
3727;DHT22;1879;45.876;12.300;2023-06-22T00:50:21;26.00;99.90
3727;DHT22;1879;45.876;12.300;2023-06-22T00:52:51;26.00;99.90
3727;DHT22;1879;45.876;12.300;2023-06-22T00:55:19;25.90;99.90
3727;DHT22;1879;45.876;12.300;2023-06-22T00:57:46;25.80;99.90
3727;DHT22;1879;45.876;12.300;2023-06-22T01:00:15;25.70;99.90
3727;DHT22;1879;45.876;12.300;2023-06-22T01:02:43;25.70;99.90
3727;DHT22;1879;45.876;12.300;2023-06-22T01:05:12;25.80;99.90
3727;DHT22;1879;45.876;12.300;2023-06-22T01:07:48;25.80;99.90
3727;DHT22;1879;45.876;12.300;2023-06-22T01:10:24;25.70;99.90
3727;DHT22;1879;45.876;12.300;2023-06-22T01:12:57;25.70;99.90
3727;DHT22;1879;45.876;12.300;2023-06-22T01:15:28;25.60;99.90
3727;DHT22;1879;45.876;12.300;2023-06-22T01:17:56;25.60;99.90
3727;DHT22;1879;45.876;12.300;2023-06-22T01:20:25;25.60;99.90
3727;DHT22;1879;45.876;12.300;2023-06-22T01:23:06;25.50;99.90
3727;DHT22;1879;45.876;12.300;2023-06-22T01:25:41;25.50;99.90
3727;DHT22;1879;45.876;12.300;2023-06-22T01:28:23;25.50;99.90
3727;DHT22;1879;45.876;12.300;2023-06-22T01:30:52;25.50;99.90
3727;DHT22;1879;45.876;12.300;2023-06-22T01:33:33;25.50;99.90
3727;DHT22;1879;45.876;12.300;2023-06-22T01:36:01;25.40;99.90
3727;DHT22;1879;45.876;12.300;2023-06-22T01:38:29;25.40;99.90
3727;DHT22;1879;45.876;12.300;2023-06-22T01:40:58;25.40;99.90
3727;DHT22;1879;45.876;12.300;2023-06-22T01:43:27;25.40;99.90
3727;DHT22;1879;45.876;12.300;2023-06-22T01:45:56;25.40;99.90
3727;DHT22;1879;45.876;12.300;2023-06-22T01:48:23;25.40;99.90
3727;DHT22;1879;45.876;12.300;2023-06-22T01:50:52;25.40;99.90
3727;DHT22;1879;45.876;12.300;2023-06-22T01:53:21;25.40;99.90
3727;DHT22;1879;45.876;12.300;2023-06-22T01:55:48;25.40;99.90
3727;DHT22;1879;45.876;12.300;2023-06-22T01:58:17;25.30;99.90
3727;DHT22;1879;45.876;12.300;2023-06-22T02:00:50;25.30;99.90
3727;DHT22;1879;45.876;12.300;2023-06-22T02:03:23;25.30;99.90
3727;DHT22;1879;45.876;12.300;2023-06-22T02:05:56;25.30;99.90
3727;DHT22;1879;45.876;12.300;2023-06-22T02:08:29;25.30;99.90
3727;DHT22;1879;45.876;12.300;2023-06-22T02:10:58;25.30;99.90
3727;DHT22;1879;45.876;12.300;2023-06-22T02:13:26;25.30;99.90
3727;DHT22;1879;45.876;12.300;2023-06-22T02:15:54;25.20;99.90
3727;DHT22;1879;45.876;12.300;2023-06-22T02:18:23;25.30;99.90
3727;DHT22;1879;45.876;12.300;2023-06-22T02:20:51;25.20;99.90
3727;DHT22;1879;45.876;12.300;2023-06-22T02:23:18;25.20;99.90
3727;DHT22;1879;45.876;12.300;2023-06-22T02:25:45;25.20;99.90
3727;DHT22;1879;45.876;12.300;2023-06-22T02:28:12;25.20;99.90
3727;DHT22;1879;45.876;12.300;2023-06-22T02:30:39;25.10;99.90
3727;DHT22;1879;45.876;12.300;2023-06-22T02:33:06;25.00;99.90
3727;DHT22;1879;45.876;12.300;2023-06-22T02:35:35;25.00;99.90
3727;DHT22;1879;45.876;12.300;2023-06-22T02:38:03;25.00;99.90
3727;DHT22;1879;45.876;12.300;2023-06-22T02:40:30;24.90;99.90
3727;DHT22;1879;45.876;12.300;2023-06-22T02:42:58;24.80;99.90
3727;DHT22;1879;45.876;12.300;2023-06-22T02:45:27;24.80;99.90
3727;DHT22;1879;45.876;12.300;2023-06-22T02:47:55;24.70;99.90
3727;DHT22;1879;45.876;12.300;2023-06-22T02:50:25;24.80;99.90
3727;DHT22;1879;45.876;12.300;2023-06-22T02:52:53;24.80;99.90
3727;DHT22;1879;45.876;12.300;2023-06-22T02:55:20;24.80;99.90
3727;DHT22;1879;45.876;12.300;2023-06-22T02:57:47;24.80;99.90
3727;DHT22;1879;45.876;12.300;2023-06-22T03:00:18;24.80;99.90
3727;DHT22;1879;45.876;12.300;2023-06-22T03:02:47;24.80;99.90
3727;DHT22;1879;45.876;12.300;2023-06-22T03:05:15;24.80;99.90
3727;DHT22;1879;45.876;12.300;2023-06-22T03:07:44;24.90;99.90
3727;DHT22;1879;45.876;12.300;2023-06-22T03:10:13;24.90;99.90
3727;DHT22;1879;45.876;12.300;2023-06-22T03:12:41;24.90;99.90
3727;DHT22;1879;45.876;12.300;2023-06-22T03:15:10;24.90;99.90
3727;DHT22;1879;45.876;12.300;2023-06-22T03:17:38;24.80;99.90
3727;DHT22;1879;45.876;12.300;2023-06-22T03:20:06;24.70;99.90
3727;DHT22;1879;45.876;12.300;2023-06-22T03:22:36;24.70;99.90
3727;DHT22;1879;45.876;12.300;2023-06-22T03:25:03;24.60;99.90
3727;DHT22;1879;45.876;12.300;2023-06-22T03:27:36;24.60;99.90
3727;DHT22;1879;45.876;12.300;2023-06-22T03:30:04;24.60;99.90
3727;DHT22;1879;45.876;12.300;2023-06-22T03:32:31;24.70;99.90
3727;DHT22;1879;45.876;12.300;2023-06-22T03:34:58;24.70;99.90
3727;DHT22;1879;45.876;12.300;2023-06-22T03:37:25;24.70;99.90
3727;DHT22;1879;45.876;12.300;2023-06-22T03:39:52;24.70;99.90
3727;DHT22;1879;45.876;12.300;2023-06-22T03:42:19;24.70;99.90
3727;DHT22;1879;45.876;12.300;2023-06-22T03:44:48;24.70;99.90
3727;DHT22;1879;45.876;12.300;2023-06-22T03:47:15;24.70;99.90
3727;DHT22;1879;45.876;12.300;2023-06-22T03:49:42;24.80;99.90
3727;DHT22;1879;45.876;12.300;2023-06-22T03:52:09;24.80;99.90
3727;DHT22;1879;45.876;12.300;2023-06-22T03:54:36;24.90;99.90
3727;DHT22;1879;45.876;12.300;2023-06-22T03:57:04;24.90;99.90
3727;DHT22;1879;45.876;12.300;2023-06-22T03:59:31;24.90;99.90
3727;DHT22;1879;45.876;12.300;2023-06-22T04:01:59;24.90;99.90
3727;DHT22;1879;45.876;12.300;2023-06-22T04:04:26;24.90;99.90
3727;DHT22;1879;45.876;12.300;2023-06-22T04:06:54;25.00;99.90
3727;DHT22;1879;45.876;12.300;2023-06-22T04:09:21;25.00;99.90
3727;DHT22;1879;45.876;12.300;2023-06-22T04:11:48;25.10;99.90
3727;DHT22;1879;45.876;12.300;2023-06-22T04:14:15;25.20;99.90
3727;DHT22;1879;45.876;12.300;2023-06-22T04:16:42;25.10;99.90
3727;DHT22;1879;45.876;12.300;2023-06-22T04:19:10;25.20;99.90
3727;DHT22;1879;45.876;12.300;2023-06-22T04:21:42;25.20;99.90
3727;DHT22;1879;45.876;12.300;2023-06-22T04:24:08;25.30;99.90
3727;DHT22;1879;45.876;12.300;2023-06-22T04:26:35;25.40;99.90
3727;DHT22;1879;45.876;12.300;2023-06-22T04:29:04;25.40;99.90
3727;DHT22;1879;45.876;12.300;2023-06-22T04:31:32;25.50;99.90
3727;DHT22;1879;45.876;12.300;2023-06-22T04:34:02;25.60;99.90
3727;DHT22;1879;45.876;12.300;2023-06-22T04:36:34;25.70;99.90
3727;DHT22;1879;45.876;12.300;2023-06-22T04:39:04;25.70;99.90
3727;DHT22;1879;45.876;12.300;2023-06-22T04:41:32;25.70;99.90
3727;DHT22;1879;45.876;12.300;2023-06-22T04:44:08;25.80;99.90
3727;DHT22;1879;45.876;12.300;2023-06-22T04:46:35;25.80;99.90
3727;DHT22;1879;45.876;12.300;2023-06-22T04:49:04;25.80;99.90
3727;DHT22;1879;45.876;12.300;2023-06-22T04:51:39;25.80;99.90
3727;DHT22;1879;45.876;12.300;2023-06-22T04:54:07;25.80;99.90
3727;DHT22;1879;45.876;12.300;2023-06-22T04:56:37;25.80;99.90
3727;DHT22;1879;45.876;12.300;2023-06-22T04:59:06;25.80;99.90
3727;DHT22;1879;45.876;12.300;2023-06-22T05:01:33;25.90;99.90
3727;DHT22;1879;45.876;12.300;2023-06-22T05:04:00;25.90;99.90
3727;DHT22;1879;45.876;12.300;2023-06-22T05:06:28;25.90;99.90
3727;DHT22;1879;45.876;12.300;2023-06-22T05:08:57;25.90;99.90
3727;DHT22;1879;45.876;12.300;2023-06-22T05:11:25;26.00;99.90
3727;DHT22;1879;45.876;12.300;2023-06-22T05:13:52;26.00;99.90
3727;DHT22;1879;45.876;12.300;2023-06-22T05:16:19;26.00;99.90
3727;DHT22;1879;45.876;12.300;2023-06-22T05:18:50;26.00;99.90
3727;DHT22;1879;45.876;12.300;2023-06-22T05:21:18;26.10;99.90
3727;DHT22;1879;45.876;12.300;2023-06-22T05:23:45;26.10;99.90
3727;DHT22;1879;45.876;12.300;2023-06-22T05:26:14;26.20;99.90
3727;DHT22;1879;45.876;12.300;2023-06-22T05:28:41;26.20;99.90
3727;DHT22;1879;45.876;12.300;2023-06-22T05:31:12;26.20;99.90
3727;DHT22;1879;45.876;12.300;2023-06-22T05:33:39;26.30;99.90
3727;DHT22;1879;45.876;12.300;2023-06-22T05:36:06;26.40;99.90
3727;DHT22;1879;45.876;12.300;2023-06-22T05:38:33;26.40;99.90
3727;DHT22;1879;45.876;12.300;2023-06-22T05:41:00;26.40;99.90
3727;DHT22;1879;45.876;12.300;2023-06-22T05:43:28;26.40;99.90
3727;DHT22;1879;45.876;12.300;2023-06-22T05:45:56;26.40;99.90
3727;DHT22;1879;45.876;12.300;2023-06-22T05:48:23;26.50;99.90
3727;DHT22;1879;45.876;12.300;2023-06-22T05:50:50;26.50;99.90
3727;DHT22;1879;45.876;12.300;2023-06-22T05:53:17;26.50;99.90
3727;DHT22;1879;45.876;12.300;2023-06-22T05:55:44;26.50;99.90
3727;DHT22;1879;45.876;12.300;2023-06-22T05:58:11;26.60;99.90
3727;DHT22;1879;45.876;12.300;2023-06-22T06:00:40;26.60;99.90
3727;DHT22;1879;45.876;12.300;2023-06-22T11:25:47;35.00;94.10
3727;DHT22;1879;45.876;12.300;2023-06-22T11:28:15;35.00;92.80
3727;DHT22;1879;45.876;12.300;2023-06-22T11:30:42;34.90;92.90
3727;DHT22;1879;45.876;12.300;2023-06-22T11:33:09;34.80;92.40
3727;DHT22;1879;45.876;12.300;2023-06-22T11:35:36;35.00;92.20
3727;DHT22;1879;45.876;12.300;2023-06-22T11:38:03;35.30;91.60
3727;DHT22;1879;45.876;12.300;2023-06-22T11:40:30;35.50;90.90
3727;DHT22;1879;45.876;12.300;2023-06-22T11:42:57;35.70;90.40
3727;DHT22;1879;45.876;12.300;2023-06-22T11:45:27;35.90;90.10
3727;DHT22;1879;45.876;12.300;2023-06-22T11:47:54;36.00;88.80
3727;DHT22;1879;45.876;12.300;2023-06-22T11:50:21;35.60;87.00
3727;DHT22;1879;45.876;12.300;2023-06-22T11:52:48;35.80;88.40
3727;DHT22;1879;45.876;12.300;2023-06-22T11:55:15;35.70;87.00
3727;DHT22;1879;45.876;12.300;2023-06-22T11:57:54;35.50;87.20
3727;DHT22;1879;45.876;12.300;2023-06-22T12:00:21;35.80;86.30
3727;DHT22;1879;45.876;12.300;2023-06-22T12:02:51;36.00;86.30
3727;DHT22;1879;45.876;12.300;2023-06-22T12:05:19;36.40;87.00
3727;DHT22;1879;45.876;12.300;2023-06-22T12:07:46;36.70;87.10
3727;DHT22;1879;45.876;12.300;2023-06-22T12:10:14;36.60;84.30
3727;DHT22;1879;45.876;12.300;2023-06-22T12:12:41;36.50;82.80
3727;DHT22;1879;45.876;12.300;2023-06-22T12:15:09;36.80;82.10
3727;DHT22;1879;45.876;12.300;2023-06-22T12:17:36;37.00;80.30
3727;DHT22;1879;45.876;12.300;2023-06-22T12:20:06;37.20;80.70
3727;DHT22;1879;45.876;12.300;2023-06-22T12:22:34;37.40;81.10
3727;DHT22;1879;45.876;12.300;2023-06-22T12:25:03;37.60;79.80
3727;DHT22;1879;45.876;12.300;2023-06-22T12:27:30;37.50;79.00
3727;DHT22;1879;45.876;12.300;2023-06-22T12:29:57;37.80;79.10
3727;DHT22;1879;45.876;12.300;2023-06-22T12:32:24;37.90;77.10
3727;DHT22;1879;45.876;12.300;2023-06-22T12:34:52;38.00;75.60
3727;DHT22;1879;45.876;12.300;2023-06-22T12:37:20;37.50;73.60
3727;DHT22;1879;45.876;12.300;2023-06-22T12:39:48;37.40;74.50
3727;DHT22;1879;45.876;12.300;2023-06-22T12:42:15;37.40;74.60
3727;DHT22;1879;45.876;12.300;2023-06-22T12:44:42;37.60;74.70
3727;DHT22;1879;45.876;12.300;2023-06-22T12:47:10;37.60;74.10
3727;DHT22;1879;45.876;12.300;2023-06-22T12:49:37;37.60;71.40
3727;DHT22;1879;45.876;12.300;2023-06-22T12:52:08;37.40;70.70
3727;DHT22;1879;45.876;12.300;2023-06-22T12:54:37;37.60;71.80
3727;DHT22;1879;45.876;12.300;2023-06-22T12:57:04;37.60;72.10
3727;DHT22;1879;45.876;12.300;2023-06-22T12:59:31;37.90;71.30
3727;DHT22;1879;45.876;12.300;2023-06-22T13:01:58;37.90;70.10
3727;DHT22;1879;45.876;12.300;2023-06-22T13:04:25;38.20;70.30
3727;DHT22;1879;45.876;12.300;2023-06-22T13:06:52;38.20;71.20
3727;DHT22;1879;45.876;12.300;2023-06-22T13:09:20;38.40;71.90
3727;DHT22;1879;45.876;12.300;2023-06-22T13:11:48;38.30;70.80
3727;DHT22;1879;45.876;12.300;2023-06-22T13:14:15;38.00;69.20
3727;DHT22;1879;45.876;12.300;2023-06-22T13:16:42;37.90;70.00
3727;DHT22;1879;45.876;12.300;2023-06-22T13:19:10;38.30;71.20
3727;DHT22;1879;45.876;12.300;2023-06-22T13:21:40;38.50;71.60
3727;DHT22;1879;45.876;12.300;2023-06-22T13:24:07;38.60;70.00
3727;DHT22;1879;45.876;12.300;2023-06-22T13:26:34;38.60;69.30
3727;DHT22;1879;45.876;12.300;2023-06-22T13:29:03;38.50;68.30
3727;DHT22;1879;45.876;12.300;2023-06-22T13:31:29;38.80;68.80
3727;DHT22;1879;45.876;12.300;2023-06-22T13:33:57;38.90;67.00
3727;DHT22;1879;45.876;12.300;2023-06-22T13:36:24;39.10;66.90
3727;DHT22;1879;45.876;12.300;2023-06-22T13:38:51;39.10;66.30
3727;DHT22;1879;45.876;12.300;2023-06-22T13:41:18;38.90;65.40
3727;DHT22;1879;45.876;12.300;2023-06-22T13:43:45;39.00;66.50
3727;DHT22;1879;45.876;12.300;2023-06-22T13:46:13;39.20;66.10
3727;DHT22;1879;45.876;12.300;2023-06-22T13:48:40;39.30;66.40
3727;DHT22;1879;45.876;12.300;2023-06-22T13:51:07;39.10;66.60
3727;DHT22;1879;45.876;12.300;2023-06-22T13:53:34;38.90;66.70
3727;DHT22;1879;45.876;12.300;2023-06-22T13:56:01;39.00;68.00
3727;DHT22;1879;45.876;12.300;2023-06-22T13:58:28;39.20;66.90
3727;DHT22;1879;45.876;12.300;2023-06-22T14:00:55;39.20;66.90
3727;DHT22;1879;45.876;12.300;2023-06-22T14:03:24;39.30;67.50
3727;DHT22;1879;45.876;12.300;2023-06-22T14:05:51;39.40;67.40
3727;DHT22;1879;45.876;12.300;2023-06-22T14:08:21;39.40;67.00
3727;DHT22;1879;45.876;12.300;2023-06-22T14:10:50;39.40;66.50
3727;DHT22;1879;45.876;12.300;2023-06-22T14:13:19;39.40;65.80
3727;DHT22;1879;45.876;12.300;2023-06-22T14:15:46;39.40;67.30
3727;DHT22;1879;45.876;12.300;2023-06-22T14:18:14;39.50;67.60
3727;DHT22;1879;45.876;12.300;2023-06-22T14:20:42;39.50;67.30
3727;DHT22;1879;45.876;12.300;2023-06-22T14:23:09;39.50;66.80
3727;DHT22;1879;45.876;12.300;2023-06-22T14:25:37;39.50;67.10
3727;DHT22;1879;45.876;12.300;2023-06-22T14:28:04;39.40;66.20
3727;DHT22;1879;45.876;12.300;2023-06-22T14:30:31;39.30;66.30
3727;DHT22;1879;45.876;12.300;2023-06-22T14:32:58;39.40;66.50
3727;DHT22;1879;45.876;12.300;2023-06-22T14:35:25;39.10;67.60
3727;DHT22;1879;45.876;12.300;2023-06-22T14:37:55;38.70;66.70
3727;DHT22;1879;45.876;12.300;2023-06-22T14:40:22;38.50;67.90
3727;DHT22;1879;45.876;12.300;2023-06-22T14:42:49;38.40;68.10
3727;DHT22;1879;45.876;12.300;2023-06-22T14:45:16;38.30;68.50
3727;DHT22;1879;45.876;12.300;2023-06-22T14:47:43;38.40;69.00
3727;DHT22;1879;45.876;12.300;2023-06-22T14:50:10;38.30;68.90
3727;DHT22;1879;45.876;12.300;2023-06-22T14:52:37;38.50;68.70
3727;DHT22;1879;45.876;12.300;2023-06-22T14:55:06;38.40;67.60
3727;DHT22;1879;45.876;12.300;2023-06-22T14:57:33;38.20;67.30
3727;DHT22;1879;45.876;12.300;2023-06-22T15:00:04;38.00;68.30
3727;DHT22;1879;45.876;12.300;2023-06-22T15:02:32;37.90;68.30
3727;DHT22;1879;45.876;12.300;2023-06-22T15:04:59;38.00;69.00
3727;DHT22;1879;45.876;12.300;2023-06-22T15:07:26;38.10;68.30
3727;DHT22;1879;45.876;12.300;2023-06-22T15:09:53;38.30;68.30
3727;DHT22;1879;45.876;12.300;2023-06-22T15:12:21;38.50;68.70
3727;DHT22;1879;45.876;12.300;2023-06-22T15:14:48;38.70;68.80
3727;DHT22;1879;45.876;12.300;2023-06-22T15:17:15;38.80;67.00
3727;DHT22;1879;45.876;12.300;2023-06-22T15:19:42;38.80;66.50
3727;DHT22;1879;45.876;12.300;2023-06-22T15:22:09;38.80;67.30
3727;DHT22;1879;45.876;12.300;2023-06-22T15:24:36;38.70;66.90
3727;DHT22;1879;45.876;12.300;2023-06-22T15:27:03;38.50;67.50
3727;DHT22;1879;45.876;12.300;2023-06-22T15:29:32;38.40;67.40
3727;DHT22;1879;45.876;12.300;2023-06-22T15:32:00;38.20;67.00
3727;DHT22;1879;45.876;12.300;2023-06-22T15:34:27;38.00;67.30
3727;DHT22;1879;45.876;12.300;2023-06-22T15:36:54;37.90;67.00
3727;DHT22;1879;45.876;12.300;2023-06-22T15:39:21;37.80;66.50
3727;DHT22;1879;45.876;12.300;2023-06-22T15:41:49;37.90;67.50
3727;DHT22;1879;45.876;12.300;2023-06-22T15:44:19;38.20;67.40
3727;DHT22;1879;45.876;12.300;2023-06-22T15:46:47;38.30;66.40
3727;DHT22;1879;45.876;12.300;2023-06-22T15:49:15;38.50;64.80
3727;DHT22;1879;45.876;12.300;2023-06-22T15:51:42;38.50;64.50
3727;DHT22;1879;45.876;12.300;2023-06-22T15:54:09;38.50;64.30
3727;DHT22;1879;45.876;12.300;2023-06-22T15:56:37;38.50;65.00
3727;DHT22;1879;45.876;12.300;2023-06-22T15:59:04;38.40;65.20
3727;DHT22;1879;45.876;12.300;2023-06-22T16:01:31;38.30;64.90
3727;DHT22;1879;45.876;12.300;2023-06-22T16:04:00;38.10;65.70
3727;DHT22;1879;45.876;12.300;2023-06-22T16:06:28;38.10;66.00
3727;DHT22;1879;45.876;12.300;2023-06-22T16:08:55;38.00;65.70
3727;DHT22;1879;45.876;12.300;2023-06-22T16:11:22;38.10;65.40
3727;DHT22;1879;45.876;12.300;2023-06-22T16:13:49;37.60;62.60
3727;DHT22;1879;45.876;12.300;2023-06-22T16:16:16;37.20;62.90
3727;DHT22;1879;45.876;12.300;2023-06-22T16:18:43;36.90;62.40
3727;DHT22;1879;45.876;12.300;2023-06-22T16:21:12;36.70;63.20
3727;DHT22;1879;45.876;12.300;2023-06-22T16:23:39;36.60;62.90
3727;DHT22;1879;45.876;12.300;2023-06-22T16:26:06;36.50;64.00
3727;DHT22;1879;45.876;12.300;2023-06-22T16:28:33;36.70;64.70
3727;DHT22;1879;45.876;12.300;2023-06-22T16:31:00;36.70;63.70
3727;DHT22;1879;45.876;12.300;2023-06-22T16:33:27;36.60;63.50
3727;DHT22;1879;45.876;12.300;2023-06-22T16:35:54;36.40;63.60
3727;DHT22;1879;45.876;12.300;2023-06-22T16:38:22;36.30;63.90
3727;DHT22;1879;45.876;12.300;2023-06-22T16:40:49;36.10;63.10
3727;DHT22;1879;45.876;12.300;2023-06-22T16:43:16;35.80;62.50
3727;DHT22;1879;45.876;12.300;2023-06-22T16:45:43;35.50;62.90
3727;DHT22;1879;45.876;12.300;2023-06-22T16:48:10;35.30;63.00
3727;DHT22;1879;45.876;12.300;2023-06-22T16:50:37;35.10;63.10
3727;DHT22;1879;45.876;12.300;2023-06-22T16:53:04;34.90;63.70
3727;DHT22;1879;45.876;12.300;2023-06-22T16:55:33;34.90;64.90
3727;DHT22;1879;45.876;12.300;2023-06-22T16:58:01;35.00;65.40
3727;DHT22;1879;45.876;12.300;2023-06-22T17:00:30;35.10;66.20
3727;DHT22;1879;45.876;12.300;2023-06-22T17:03:00;35.10;66.40
3727;DHT22;1879;45.876;12.300;2023-06-22T17:05:30;35.00;66.10
3727;DHT22;1879;45.876;12.300;2023-06-22T17:08:01;34.80;66.60
3727;DHT22;1879;45.876;12.300;2023-06-22T17:10:29;34.70;67.10
3727;DHT22;1879;45.876;12.300;2023-06-22T17:12:58;34.60;67.10
3727;DHT22;1879;45.876;12.300;2023-06-22T17:15:25;34.60;67.40
3727;DHT22;1879;45.876;12.300;2023-06-22T17:17:56;34.50;67.80
3727;DHT22;1879;45.876;12.300;2023-06-22T17:20:23;34.50;67.70
3727;DHT22;1879;45.876;12.300;2023-06-22T17:22:50;34.50;68.50
3727;DHT22;1879;45.876;12.300;2023-06-22T17:25:19;34.50;69.30
3727;DHT22;1879;45.876;12.300;2023-06-22T17:27:48;34.40;69.70
3727;DHT22;1879;45.876;12.300;2023-06-22T17:30:17;34.40;70.20
3727;DHT22;1879;45.876;12.300;2023-06-22T17:32:47;34.30;70.70
3727;DHT22;1879;45.876;12.300;2023-06-22T17:35:14;34.20;70.80
3727;DHT22;1879;45.876;12.300;2023-06-22T17:37:48;34.10;71.10
3727;DHT22;1879;45.876;12.300;2023-06-22T17:40:15;34.10;71.40
3727;DHT22;1879;45.876;12.300;2023-06-22T17:42:43;34.10;71.60
3727;DHT22;1879;45.876;12.300;2023-06-22T17:45:16;34.00;71.70
3727;DHT22;1879;45.876;12.300;2023-06-22T17:47:46;34.00;72.20
3727;DHT22;1879;45.876;12.300;2023-06-22T17:50:14;33.90;72.70
3727;DHT22;1879;45.876;12.300;2023-06-22T17:52:41;33.80;72.40
3727;DHT22;1879;45.876;12.300;2023-06-22T17:55:09;33.70;72.50
3727;DHT22;1879;45.876;12.300;2023-06-22T17:57:37;33.60;72.50
3727;DHT22;1879;45.876;12.300;2023-06-22T18:00:08;33.50;72.90
3727;DHT22;1879;45.876;12.300;2023-06-22T18:02:40;33.30;73.30
3727;DHT22;1879;45.876;12.300;2023-06-22T18:05:09;33.10;73.50
3727;DHT22;1879;45.876;12.300;2023-06-22T18:07:36;33.00;73.60
3727;DHT22;1879;45.876;12.300;2023-06-22T18:10:04;32.80;73.90
3727;DHT22;1879;45.876;12.300;2023-06-22T18:12:32;32.70;74.20
3727;DHT22;1879;45.876;12.300;2023-06-22T18:15:00;32.60;74.30
3727;DHT22;1879;45.876;12.300;2023-06-22T18:17:27;32.50;74.60
3727;DHT22;1879;45.876;12.300;2023-06-22T18:19:57;32.40;74.40
3727;DHT22;1879;45.876;12.300;2023-06-22T18:22:27;32.30;74.80
3727;DHT22;1879;45.876;12.300;2023-06-22T18:24:56;32.30;74.90
3727;DHT22;1879;45.876;12.300;2023-06-22T18:27:24;32.20;75.00
3727;DHT22;1879;45.876;12.300;2023-06-22T18:29:54;32.10;75.40
3727;DHT22;1879;45.876;12.300;2023-06-22T18:32:22;32.00;75.80
3727;DHT22;1879;45.876;12.300;2023-06-22T18:34:50;31.90;76.10
3727;DHT22;1879;45.876;12.300;2023-06-22T18:37:20;31.90;76.30
3727;DHT22;1879;45.876;12.300;2023-06-22T18:39:52;31.80;76.70
3727;DHT22;1879;45.876;12.300;2023-06-22T18:42:20;31.70;76.10
3727;DHT22;1879;45.876;12.300;2023-06-22T18:44:52;31.70;76.00
3727;DHT22;1879;45.876;12.300;2023-06-22T18:47:26;31.60;76.50
3727;DHT22;1879;45.876;12.300;2023-06-22T18:50:01;31.50;76.60
3727;DHT22;1879;45.876;12.300;2023-06-22T18:52:31;31.40;76.70
3727;DHT22;1879;45.876;12.300;2023-06-22T18:55:02;31.30;77.40
3727;DHT22;1879;45.876;12.300;2023-06-22T18:57:30;31.20;77.60
3727;DHT22;1879;45.876;12.300;2023-06-22T19:00:00;31.10;77.70
3727;DHT22;1879;45.876;12.300;2023-06-22T19:02:40;31.00;78.00
3727;DHT22;1879;45.876;12.300;2023-06-22T19:05:09;30.90;78.60
3727;DHT22;1879;45.876;12.300;2023-06-22T19:07:58;30.90;78.70
3727;DHT22;1879;45.876;12.300;2023-06-22T19:10:28;30.70;80.20
3727;DHT22;1879;45.876;12.300;2023-06-22T19:13:16;30.60;79.70
3727;DHT22;1879;45.876;12.300;2023-06-22T19:15:44;30.50;80.10
3727;DHT22;1879;45.876;12.300;2023-06-22T19:18:15;30.50;80.80
3727;DHT22;1879;45.876;12.300;2023-06-22T19:20:43;30.40;81.30
3727;DHT22;1879;45.876;12.300;2023-06-22T19:23:30;30.40;81.50
3727;DHT22;1879;45.876;12.300;2023-06-22T19:25:58;30.30;82.50
3727;DHT22;1879;45.876;12.300;2023-06-22T19:28:27;30.30;82.60
3727;DHT22;1879;45.876;12.300;2023-06-22T19:30:55;30.20;83.20
3727;DHT22;1879;45.876;12.300;2023-06-22T19:33:22;30.10;83.50
3727;DHT22;1879;45.876;12.300;2023-06-22T19:35:51;30.10;84.20
3727;DHT22;1879;45.876;12.300;2023-06-22T19:38:19;30.00;84.60
3727;DHT22;1879;45.876;12.300;2023-06-22T19:40:48;30.00;85.00
3727;DHT22;1879;45.876;12.300;2023-06-22T19:43:16;29.90;85.10
3727;DHT22;1879;45.876;12.300;2023-06-22T19:45:44;29.90;85.70
3727;DHT22;1879;45.876;12.300;2023-06-22T19:48:12;29.80;85.60
3727;DHT22;1879;45.876;12.300;2023-06-22T19:50:41;29.80;85.60
3727;DHT22;1879;45.876;12.300;2023-06-22T19:53:08;29.80;85.80
3727;DHT22;1879;45.876;12.300;2023-06-22T19:55:38;29.80;86.20
3727;DHT22;1879;45.876;12.300;2023-06-22T19:58:09;29.70;86.60
3727;DHT22;1879;45.876;12.300;2023-06-22T20:00:37;29.60;87.00
3727;DHT22;1879;45.876;12.300;2023-06-22T20:03:08;29.50;87.30
3727;DHT22;1879;45.876;12.300;2023-06-22T20:05:40;29.50;87.10
3727;DHT22;1879;45.876;12.300;2023-06-22T20:08:11;29.40;87.40
3727;DHT22;1879;45.876;12.300;2023-06-22T20:10:39;29.40;87.30
3727;DHT22;1879;45.876;12.300;2023-06-22T20:13:12;29.30;87.30
3727;DHT22;1879;45.876;12.300;2023-06-22T20:15:40;29.20;89.30
3727;DHT22;1879;45.876;12.300;2023-06-22T20:18:08;29.20;90.90
3727;DHT22;1879;45.876;12.300;2023-06-22T20:20:36;29.00;91.40
3727;DHT22;1879;45.876;12.300;2023-06-22T20:23:04;29.00;92.20
3727;DHT22;1879;45.876;12.300;2023-06-22T20:25:34;28.90;93.10
3727;DHT22;1879;45.876;12.300;2023-06-22T20:28:07;28.90;94.00
3727;DHT22;1879;45.876;12.300;2023-06-22T20:30:37;28.80;94.60
3727;DHT22;1879;45.876;12.300;2023-06-22T20:33:05;28.80;95.40
3727;DHT22;1879;45.876;12.300;2023-06-22T20:35:39;28.70;95.70
3727;DHT22;1879;45.876;12.300;2023-06-22T20:38:06;28.70;96.00
3727;DHT22;1879;45.876;12.300;2023-06-22T20:40:33;28.60;96.40
3727;DHT22;1879;45.876;12.300;2023-06-22T20:43:01;28.60;96.90
3727;DHT22;1879;45.876;12.300;2023-06-22T20:45:28;28.50;97.30
3727;DHT22;1879;45.876;12.300;2023-06-22T20:47:58;28.50;97.90
3727;DHT22;1879;45.876;12.300;2023-06-22T20:50:26;28.50;98.40
3727;DHT22;1879;45.876;12.300;2023-06-22T20:52:56;28.50;98.40
3727;DHT22;1879;45.876;12.300;2023-06-22T20:55:23;28.50;98.60
3727;DHT22;1879;45.876;12.300;2023-06-22T20:57:50;28.50;98.90
3727;DHT22;1879;45.876;12.300;2023-06-22T21:00:18;28.40;99.10
3727;DHT22;1879;45.876;12.300;2023-06-22T21:02:45;28.40;99.40
3727;DHT22;1879;45.876;12.300;2023-06-22T21:05:14;28.40;99.60
3727;DHT22;1879;45.876;12.300;2023-06-22T21:07:41;28.20;99.90
3727;DHT22;1879;45.876;12.300;2023-06-22T21:10:09;28.20;99.90
3727;DHT22;1879;45.876;12.300;2023-06-22T21:12:36;28.10;99.90
3727;DHT22;1879;45.876;12.300;2023-06-22T21:15:04;28.00;99.90